XNO722 WMKA-WMKP
Flight info
| Callsign | XNO722 |
|---|---|
| Flight time | 0h 38m |
| Altitude | 10000 |
| Route | OMBUL DCT LUNTU |
| Aircraft | A320/M-SDE3FGHIRWY/LB1 |
Departure
| Time | 2026-04-25 02:15 |
|---|---|
| Airport | Sultan Abdul Halim Airport (WMKA) |
Arrival
| Time | 2026-04-25 02:54 |
|---|---|
| Airport | Penang International Airport (WMKP) |
| Time | Latitude | Longitude | Altitude | Speed | Heading |
|---|---|---|---|---|---|
| 2026-04-25 01:38 | 6.19163 | 100.39647 | 20 ft | 0 kts | 269° |
| 2026-04-25 02:02 | 6.19167 | 100.39669 | 20 ft | 4 kts | 237° |
| 2026-04-25 02:03 | 6.19173 | 100.39686 | 20 ft | 4 kts | 277° |
| 2026-04-25 02:03 | 6.19166 | 100.39703 | 20 ft | 4 kts | 303° |
| 2026-04-25 02:03 | 6.19165 | 100.39705 | 20 ft | 0 kts | 310° |
| 2026-04-25 02:05 | 6.19165 | 100.39703 | 20 ft | 1 kts | 289° |
| 2026-04-25 02:06 | 6.19162 | 100.39700 | 20 ft | 0 kts | 246° |
| 2026-04-25 02:06 | 6.19153 | 100.39687 | 22 ft | 10 kts | 234° |
| 2026-04-25 02:06 | 6.19095 | 100.39660 | 22 ft | 8 kts | 190° |
| 2026-04-25 02:06 | 6.19036 | 100.39673 | 20 ft | 9 kts | 153° |
| 2026-04-25 02:07 | 6.18978 | 100.39718 | 23 ft | 12 kts | 128° |
| 2026-04-25 02:07 | 6.18964 | 100.39812 | 23 ft | 16 kts | 65° |
| 2026-04-25 02:07 | 6.19042 | 100.39894 | 25 ft | 16 kts | 49° |
| 2026-04-25 02:07 | 6.19015 | 100.39988 | 22 ft | 16 kts | 131° |
| 2026-04-25 02:08 | 6.18995 | 100.40050 | 20 ft | 8 kts | 61° |
| 2026-04-25 02:08 | 6.19042 | 100.40097 | 22 ft | 12 kts | 43° |
| 2026-04-25 02:08 | 6.19098 | 100.40147 | 21 ft | 9 kts | 44° |
| 2026-04-25 02:08 | 6.19139 | 100.40185 | 20 ft | 7 kts | 43° |
| 2026-04-25 02:09 | 6.19185 | 100.40228 | 21 ft | 15 kts | 42° |
| 2026-04-25 02:09 | 6.19271 | 100.40306 | 21 ft | 16 kts | 42° |
| 2026-04-25 02:09 | 6.19351 | 100.40379 | 20 ft | 15 kts | 42° |
| 2026-04-25 02:09 | 6.19418 | 100.40441 | 22 ft | 11 kts | 42° |
| 2026-04-25 02:10 | 6.19466 | 100.40484 | 20 ft | 9 kts | 41° |
| 2026-04-25 02:10 | 6.19553 | 100.40563 | 22 ft | 20 kts | 41° |
| 2026-04-25 02:10 | 6.19655 | 100.40658 | 21 ft | 19 kts | 45° |
| 2026-04-25 02:10 | 6.19731 | 100.40723 | 21 ft | 11 kts | 19° |
| 2026-04-25 02:11 | 6.19777 | 100.40707 | 22 ft | 1 kts | 318° |
| 2026-04-25 02:13 | 6.19816 | 100.40673 | 22 ft | 9 kts | 319° |
| 2026-04-25 02:14 | 6.19853 | 100.40666 | 22 ft | 2 kts | 346° |
| 2026-04-25 02:14 | 6.19858 | 100.40652 | 22 ft | 2 kts | 276° |
| 2026-04-25 02:14 | 6.19844 | 100.40626 | 24 ft | 2 kts | 228° |
| 2026-04-25 02:14 | 6.19842 | 100.40624 | 22 ft | 0 kts | 226° |
| 2026-04-25 02:15 | 6.19735 | 100.40527 | 23 ft | 60 kts | 223° |
| 2026-04-25 02:15 | 6.19223 | 100.40060 | 21 ft | 134 kts | 222° |
| 2026-04-25 02:15 | 6.18395 | 100.39316 | 204 ft | 176 kts | 222° |
| 2026-04-25 02:15 | 6.17439 | 100.38479 | 828 ft | 189 kts | 222° |
| 2026-04-25 02:16 | 6.16406 | 100.37604 | 1545 ft | 199 kts | 218° |
| 2026-04-25 02:16 | 6.15221 | 100.36833 | 2138 ft | 212 kts | 196° |
| 2026-04-25 02:16 | 6.13709 | 100.36858 | 2526 ft | 232 kts | 161° |
| 2026-04-25 02:16 | 6.12144 | 100.37509 | 2941 ft | 256 kts | 159° |
| 2026-04-25 02:17 | 6.10336 | 100.37811 | 3582 ft | 272 kts | 182° |
| 2026-04-25 02:17 | 6.08459 | 100.37462 | 4428 ft | 277 kts | 193° |
| 2026-04-25 02:17 | 6.06590 | 100.36964 | 5316 ft | 280 kts | 194° |
| 2026-04-25 02:17 | 6.04716 | 100.36442 | 6202 ft | 281 kts | 194° |
| 2026-04-25 02:18 | 6.02811 | 100.35975 | 7058 ft | 283 kts | 186° |
| 2026-04-25 02:18 | 6.00837 | 100.35757 | 7884 ft | 287 kts | 184° |
| 2026-04-25 02:18 | 5.98840 | 100.35560 | 8686 ft | 291 kts | 184° |
| 2026-04-25 02:18 | 5.96814 | 100.35367 | 9467 ft | 294 kts | 184° |
| 2026-04-25 02:19 | 5.94755 | 100.35173 | 9881 ft | 298 kts | 183° |
| 2026-04-25 02:19 | 5.92691 | 100.34976 | 9990 ft | 298 kts | 184° |
| 2026-04-25 02:19 | 5.90629 | 100.34775 | 10012 ft | 298 kts | 184° |
| 2026-04-25 02:19 | 5.88567 | 100.34573 | 10025 ft | 298 kts | 184° |
| 2026-04-25 02:20 | 5.86504 | 100.34372 | 10031 ft | 297 kts | 184° |
| 2026-04-25 02:20 | 5.84440 | 100.34170 | 9909 ft | 298 kts | 184° |
| 2026-04-25 02:20 | 5.82382 | 100.33966 | 9781 ft | 297 kts | 184° |
| 2026-04-25 02:20 | 5.80330 | 100.33763 | 9667 ft | 296 kts | 184° |
| 2026-04-25 02:21 | 5.78280 | 100.33560 | 9550 ft | 296 kts | 184° |
| 2026-04-25 02:21 | 5.76234 | 100.33343 | 9423 ft | 295 kts | 185° |
| 2026-04-25 02:21 | 5.74200 | 100.33057 | 9300 ft | 295 kts | 187° |
| 2026-04-25 02:21 | 5.72176 | 100.32732 | 9175 ft | 295 kts | 187° |
| 2026-04-25 02:22 | 5.70196 | 100.32206 | 9049 ft | 296 kts | 201° |
| 2026-04-25 02:22 | 5.68408 | 100.31179 | 8922 ft | 298 kts | 216° |
| 2026-04-25 02:22 | 5.66895 | 100.29758 | 8798 ft | 298 kts | 224° |
| 2026-04-25 02:22 | 5.65442 | 100.28274 | 8693 ft | 298 kts | 224° |
| 2026-04-25 02:23 | 5.63984 | 100.26800 | 8591 ft | 297 kts | 223° |
| 2026-04-25 02:23 | 5.62524 | 100.25331 | 8461 ft | 297 kts | 223° |
| 2026-04-25 02:23 | 5.61070 | 100.23867 | 8340 ft | 296 kts | 224° |
| 2026-04-25 02:23 | 5.59620 | 100.22406 | 8202 ft | 295 kts | 224° |
| 2026-04-25 02:24 | 5.58173 | 100.20949 | 8087 ft | 294 kts | 224° |
| 2026-04-25 02:24 | 5.56730 | 100.19493 | 7972 ft | 294 kts | 224° |
| 2026-04-25 02:24 | 5.55308 | 100.18059 | 7837 ft | 293 kts | 224° |
| 2026-04-25 02:24 | 5.53873 | 100.16609 | 7742 ft | 292 kts | 224° |
| 2026-04-25 02:25 | 5.52441 | 100.15161 | 7651 ft | 292 kts | 224° |
| 2026-04-25 02:25 | 5.51011 | 100.13715 | 7525 ft | 292 kts | 224° |
| 2026-04-25 02:25 | 5.49584 | 100.12272 | 7400 ft | 290 kts | 224° |
| 2026-04-25 02:25 | 5.48164 | 100.10835 | 7304 ft | 290 kts | 224° |
| 2026-04-25 02:26 | 5.46740 | 100.09403 | 7218 ft | 289 kts | 222° |
| 2026-04-25 02:26 | 5.45160 | 100.08175 | 7089 ft | 287 kts | 210° |
| 2026-04-25 02:26 | 5.43370 | 100.07309 | 6964 ft | 285 kts | 198° |
| 2026-04-25 02:26 | 5.41457 | 100.06830 | 6871 ft | 283 kts | 188° |
| 2026-04-25 02:27 | 5.39514 | 100.06503 | 6782 ft | 283 kts | 188° |
| 2026-04-25 02:27 | 5.37573 | 100.06169 | 6655 ft | 283 kts | 188° |
| 2026-04-25 02:27 | 5.35638 | 100.05832 | 6530 ft | 282 kts | 188° |
| 2026-04-25 02:27 | 5.33703 | 100.05493 | 6427 ft | 282 kts | 188° |
| 2026-04-25 02:28 | 5.31774 | 100.05156 | 6326 ft | 281 kts | 188° |
| 2026-04-25 02:28 | 5.29848 | 100.04821 | 6199 ft | 280 kts | 188° |
| 2026-04-25 02:28 | 5.27928 | 100.04489 | 6074 ft | 280 kts | 188° |
| 2026-04-25 02:28 | 5.26012 | 100.04157 | 5948 ft | 279 kts | 188° |
| 2026-04-25 02:29 | 5.24098 | 100.03825 | 5742 ft | 280 kts | 188° |
| 2026-04-25 02:29 | 5.22192 | 100.03501 | 5203 ft | 276 kts | 187° |
| 2026-04-25 02:29 | 5.20304 | 100.03584 | 4666 ft | 271 kts | 163° |
| 2026-04-25 02:29 | 5.18683 | 100.04430 | 4387 ft | 255 kts | 139° |
| 2026-04-25 02:30 | 5.17589 | 100.05744 | 4333 ft | 239 kts | 117° |
| 2026-04-25 02:30 | 5.16944 | 100.07225 | 4247 ft | 226 kts | 112° |
| 2026-04-25 02:30 | 5.16360 | 100.08643 | 4151 ft | 215 kts | 112° |
| 2026-04-25 02:30 | 5.16034 | 100.10040 | 4069 ft | 200 kts | 85° |
| 2026-04-25 02:31 | 5.16273 | 100.11379 | 4011 ft | 193 kts | 76° |
| 2026-04-25 02:31 | 5.16500 | 100.12245 | 3974 ft | 195 kts | 75° |
| 2026-04-25 02:31 | 5.16984 | 100.13985 | 3841 ft | 193 kts | 75° |
| 2026-04-25 02:31 | 5.17347 | 100.15281 | 3780 ft | 193 kts | 75° |
| 2026-04-25 02:32 | 5.17753 | 100.16559 | 3726 ft | 193 kts | 63° |
| 2026-04-25 02:32 | 5.18253 | 100.17294 | 3687 ft | 193 kts | 46° |
| 2026-04-25 02:32 | 5.19248 | 100.18211 | 3609 ft | 187 kts | 43° |
| 2026-04-25 02:32 | 5.20165 | 100.19036 | 3517 ft | 167 kts | 43° |
| 2026-04-25 02:33 | 5.20991 | 100.19784 | 3405 ft | 156 kts | 43° |
| 2026-04-25 02:33 | 5.21792 | 100.20508 | 3184 ft | 157 kts | 43° |
| 2026-04-25 02:33 | 5.22633 | 100.21269 | 2668 ft | 168 kts | 42° |
| 2026-04-25 02:33 | 5.23515 | 100.22069 | 2142 ft | 174 kts | 42° |
| 2026-04-25 02:34 | 5.24381 | 100.22852 | 2000 ft | 159 kts | 42° |
| 2026-04-25 02:34 | 5.25183 | 100.23579 | 2004 ft | 153 kts | 42° |
| 2026-04-25 02:34 | 5.26026 | 100.24342 | 2273 ft | 176 kts | 42° |
| 2026-04-25 02:34 | 5.26959 | 100.25244 | 2722 ft | 196 kts | 53° |
| 2026-04-25 02:35 | 5.27424 | 100.26567 | 2973 ft | 211 kts | 89° |
| 2026-04-25 02:35 | 5.26960 | 100.27940 | 3022 ft | 212 kts | 127° |
| 2026-04-25 02:35 | 5.25955 | 100.29035 | 3022 ft | 213 kts | 133° |
| 2026-04-25 02:35 | 5.24932 | 100.30108 | 3030 ft | 213 kts | 133° |
| 2026-04-25 02:36 | 5.23909 | 100.31178 | 3123 ft | 211 kts | 133° |
| 2026-04-25 02:36 | 5.22886 | 100.32249 | 3506 ft | 213 kts | 133° |
| 2026-04-25 02:36 | 5.21857 | 100.33330 | 3877 ft | 215 kts | 133° |
| 2026-04-25 02:36 | 5.20820 | 100.34422 | 3997 ft | 217 kts | 133° |
| 2026-04-25 02:37 | 5.19757 | 100.35542 | 4001 ft | 224 kts | 133° |
| 2026-04-25 02:37 | 5.18685 | 100.36673 | 3997 ft | 223 kts | 133° |
| 2026-04-25 02:37 | 5.17614 | 100.37801 | 3999 ft | 224 kts | 133° |
| 2026-04-25 02:37 | 5.16543 | 100.38934 | 4009 ft | 224 kts | 133° |
| 2026-04-25 02:38 | 5.15472 | 100.40069 | 4013 ft | 224 kts | 133° |
| 2026-04-25 02:38 | 5.14401 | 100.41206 | 4003 ft | 224 kts | 133° |
| 2026-04-25 02:38 | 5.13327 | 100.42343 | 4009 ft | 225 kts | 133° |
| 2026-04-25 02:38 | 5.12260 | 100.43476 | 4025 ft | 223 kts | 133° |
| 2026-04-25 02:39 | 5.11189 | 100.44608 | 4049 ft | 223 kts | 135° |
| 2026-04-25 02:39 | 5.09859 | 100.45366 | 4059 ft | 224 kts | 172° |
| 2026-04-25 02:39 | 5.08326 | 100.45143 | 4065 ft | 227 kts | 201° |
| 2026-04-25 02:39 | 5.06868 | 100.44536 | 4079 ft | 227 kts | 201° |
| 2026-04-25 02:40 | 5.05386 | 100.43994 | 4100 ft | 228 kts | 200° |
| 2026-04-25 02:40 | 5.04105 | 100.43094 | 4104 ft | 228 kts | 231° |
| 2026-04-25 02:40 | 5.03213 | 100.41766 | 4107 ft | 231 kts | 238° |
| 2026-04-25 02:40 | 5.02403 | 100.40379 | 4117 ft | 230 kts | 239° |
| 2026-04-25 02:41 | 5.01603 | 100.38985 | 4023 ft | 230 kts | 239° |
| 2026-04-25 02:41 | 5.00812 | 100.37596 | 4009 ft | 230 kts | 239° |
| 2026-04-25 02:41 | 5.00020 | 100.36206 | 4006 ft | 230 kts | 239° |
| 2026-04-25 02:41 | 4.99230 | 100.34812 | 4029 ft | 230 kts | 239° |
| 2026-04-25 02:42 | 4.98438 | 100.33419 | 4035 ft | 230 kts | 239° |
| 2026-04-25 02:42 | 4.97649 | 100.32027 | 4023 ft | 230 kts | 239° |
| 2026-04-25 02:42 | 4.96860 | 100.30634 | 4003 ft | 230 kts | 239° |
| 2026-04-25 02:42 | 4.96070 | 100.29241 | 4028 ft | 230 kts | 239° |
| 2026-04-25 02:43 | 4.95280 | 100.27847 | 4034 ft | 230 kts | 239° |
| 2026-04-25 02:43 | 4.94490 | 100.26451 | 4022 ft | 230 kts | 239° |
| 2026-04-25 02:43 | 4.93701 | 100.25059 | 4005 ft | 229 kts | 239° |
| 2026-04-25 02:43 | 4.92911 | 100.23671 | 4027 ft | 229 kts | 239° |
| 2026-04-25 02:44 | 4.92133 | 100.22280 | 4033 ft | 229 kts | 243° |
| 2026-04-25 02:44 | 4.91793 | 100.20737 | 3991 ft | 229 kts | 275° |
| 2026-04-25 02:44 | 4.92281 | 100.19240 | 3689 ft | 228 kts | 300° |
| 2026-04-25 02:44 | 4.93124 | 100.17894 | 3376 ft | 228 kts | 304° |
| 2026-04-25 02:45 | 4.93996 | 100.16602 | 3105 ft | 226 kts | 304° |
| 2026-04-25 02:45 | 4.94882 | 100.15307 | 3006 ft | 226 kts | 304° |
| 2026-04-25 02:45 | 4.95771 | 100.14006 | 3012 ft | 227 kts | 304° |
| 2026-04-25 02:45 | 4.96661 | 100.12703 | 3026 ft | 226 kts | 304° |
| 2026-04-25 02:46 | 4.97552 | 100.11400 | 3035 ft | 226 kts | 304° |
| 2026-04-25 02:46 | 4.98441 | 100.10096 | 3024 ft | 227 kts | 304° |
| 2026-04-25 02:46 | 4.99330 | 100.08791 | 3016 ft | 226 kts | 304° |
| 2026-04-25 02:46 | 5.00232 | 100.07497 | 3012 ft | 227 kts | 310° |
| 2026-04-25 02:47 | 5.01408 | 100.06461 | 3011 ft | 226 kts | 330° |
| 2026-04-25 02:47 | 5.02859 | 100.05885 | 3011 ft | 225 kts | 349° |
| 2026-04-25 02:47 | 5.04408 | 100.05826 | 3015 ft | 224 kts | 9° |
| 2026-04-25 02:47 | 5.05883 | 100.06293 | 3011 ft | 222 kts | 29° |
| 2026-04-25 02:48 | 5.07108 | 100.07192 | 2724 ft | 217 kts | 42° |
| 2026-04-25 02:48 | 5.08219 | 100.08212 | 2511 ft | 217 kts | 43° |
| 2026-04-25 02:48 | 5.09344 | 100.09239 | 2515 ft | 219 kts | 43° |
| 2026-04-25 02:48 | 5.10478 | 100.10265 | 2512 ft | 220 kts | 43° |
| 2026-04-25 02:49 | 5.11611 | 100.11290 | 2512 ft | 219 kts | 43° |
| 2026-04-25 02:49 | 5.12734 | 100.12308 | 2337 ft | 215 kts | 43° |
| 2026-04-25 02:49 | 5.13841 | 100.13310 | 2114 ft | 215 kts | 43° |
| 2026-04-25 02:49 | 5.14957 | 100.14321 | 2135 ft | 218 kts | 43° |
| 2026-04-25 02:50 | 5.16080 | 100.15338 | 2152 ft | 218 kts | 43° |
| 2026-04-25 02:50 | 5.17206 | 100.16357 | 2147 ft | 218 kts | 42° |
| 2026-04-25 02:50 | 5.18330 | 100.17374 | 2119 ft | 218 kts | 42° |
| 2026-04-25 02:50 | 5.19458 | 100.18395 | 2128 ft | 218 kts | 42° |
| 2026-04-25 02:51 | 5.20584 | 100.19415 | 2073 ft | 219 kts | 42° |
| 2026-04-25 02:51 | 5.21709 | 100.20435 | 1827 ft | 216 kts | 42° |
| 2026-04-25 02:51 | 5.22791 | 100.21414 | 1568 ft | 202 kts | 41° |
| 2026-04-25 02:51 | 5.23780 | 100.22310 | 1326 ft | 186 kts | 41° |
| 2026-04-25 02:52 | 5.24702 | 100.23144 | 1069 ft | 171 kts | 41° |
| 2026-04-25 02:52 | 5.25556 | 100.23917 | 836 ft | 160 kts | 41° |
| 2026-04-25 02:52 | 5.26358 | 100.24643 | 638 ft | 151 kts | 41° |
| 2026-04-25 02:52 | 5.27121 | 100.25334 | 443 ft | 145 kts | 41° |
| 2026-04-25 02:53 | 5.27863 | 100.26006 | 255 ft | 143 kts | 41° |
| 2026-04-25 02:53 | 5.28597 | 100.26670 | 70 ft | 142 kts | 41° |
| 2026-04-25 02:53 | 5.29261 | 100.27274 | 24 ft | 108 kts | 42° |
| 2026-04-25 02:53 | 5.29689 | 100.27659 | 24 ft | 62 kts | 41° |
| 2026-04-25 02:54 | 5.29931 | 100.27821 | 27 ft | 24 kts | 15° |
| 2026-04-25 02:54 | 5.30053 | 100.27845 | 24 ft | 4 kts | 10° |
| 2026-04-25 02:54 | 5.30092 | 100.27849 | 24 ft | 6 kts | 359° |
| 2026-04-25 02:54 | 5.30125 | 100.27826 | 23 ft | 9 kts | 292° |
| 2026-04-25 02:55 | 5.30096 | 100.27774 | 23 ft | 8 kts | 225° |
| 2026-04-25 02:55 | 5.30058 | 100.27736 | 23 ft | 7 kts | 224° |
| 2026-04-25 02:55 | 5.30024 | 100.27703 | 23 ft | 7 kts | 222° |
| 2026-04-25 02:55 | 5.29955 | 100.27641 | 23 ft | 17 kts | 223° |
| 2026-04-25 02:56 | 5.29863 | 100.27557 | 23 ft | 19 kts | 221° |
| 2026-04-25 02:56 | 5.29760 | 100.27463 | 25 ft | 21 kts | 222° |
| 2026-04-25 02:56 | 5.29645 | 100.27359 | 23 ft | 23 kts | 221° |
| 2026-04-25 02:56 | 5.29518 | 100.27246 | 25 ft | 25 kts | 221° |
| 2026-04-25 02:57 | 5.29386 | 100.27126 | 25 ft | 25 kts | 223° |
| 2026-04-25 02:57 | 5.29361 | 100.27021 | 25 ft | 15 kts | 319° |
| 2026-04-25 02:57 | 5.29406 | 100.26932 | 23 ft | 15 kts | 255° |
| 2026-04-25 02:57 | 5.29338 | 100.26861 | 25 ft | 14 kts | 221° |
| 2026-04-25 02:58 | 5.29260 | 100.26804 | 23 ft | 13 kts | 210° |
| 2026-04-25 02:58 | 5.29194 | 100.26747 | 23 ft | 12 kts | 228° |
| 2026-04-25 02:58 | 5.29189 | 100.26685 | 23 ft | 9 kts | 311° |
| 2026-04-25 02:58 | 5.29224 | 100.26646 | 23 ft | 3 kts | 312° |
| 2026-04-25 02:59 | 5.29225 | 100.26645 | 23 ft | 0 kts | 312° |